createdAt,value
2024-04-01T00:03:16.800Z,12.59
2024-04-01T00:32:30.602Z,12.96
2024-04-01T01:01:20.810Z,11.98
2024-04-01T01:30:48.226Z,12.76
2024-04-01T01:59:47.760Z,12.72
2024-04-01T02:28:43.994Z,12.12
2024-04-01T02:57:44.411Z,11.72
2024-04-01T03:26:46.930Z,11.87
2024-04-01T03:55:59.840Z,11.68
2024-04-01T04:25:17.686Z,12.32
2024-04-01T04:54:26.484Z,12.92
2024-04-01T05:23:32.829Z,12.8
2024-04-01T05:52:18.268Z,12.17
2024-04-01T06:21:32.877Z,12.32
2024-04-01T06:50:09.969Z,12.4
2024-04-01T07:19:17.278Z,12.08
2024-04-01T07:48:24.892Z,11.77
2024-04-01T08:17:14.071Z,11.62
2024-04-01T08:46:12.730Z,11.08
2024-04-01T09:15:16.372Z,10.8
2024-04-01T09:44:24.949Z,10.89
2024-04-01T10:43:17.501Z,10.87
2024-04-01T11:11:47.052Z,11.05
2024-04-01T11:40:52.406Z,11.26
2024-04-01T12:09:33.828Z,11.81
2024-04-01T12:38:15.934Z,12.11
2024-04-01T13:07:25.684Z,12.58
2024-04-01T13:36:52.483Z,12.61
2024-04-01T14:06:09.265Z,13.16
2024-04-01T14:35:18.235Z,13.41
2024-04-01T15:04:31.176Z,14.35
2024-04-01T15:33:39.431Z,14.42
2024-04-01T16:02:49.777Z,14.77
2024-04-01T16:31:32.870Z,13.77
2024-04-01T17:00:38.164Z,13.56
2024-04-01T17:29:50.932Z,14
2024-04-01T17:58:47.394Z,13.22
2024-04-01T18:27:52.999Z,12.8
2024-04-01T18:56:35.458Z,12.31
2024-04-01T19:25:23.994Z,12.16
2024-04-01T19:54:07.486Z,11.73
2024-04-01T20:23:10.674Z,11.69
2024-04-01T20:52:37.134Z,11.65
2024-04-01T21:21:14.460Z,11.64
2024-04-01T21:50:06.261Z,11.41
2024-04-01T22:19:04.862Z,11.14
2024-04-01T22:48:07.065Z,10.98
2024-04-01T23:16:54.808Z,10.91
2024-04-01T23:45:28.471Z,10.86
